Dati meteo in tempo reale

Italia

Ora Localita Cielo Situazione Vento Temperatura Umidita Pressione
09:20MilanoSerenovariabile a 4 Km/h23°C44%1027 hPa
09:20Bergamovariabile a 4 Km/h23°C47%1027 hPa
08:55BresciaSerenoSW a 4 Km/h21°C73%1026 hPa
08:50BolzanoSerenoESE a 6 Km/h, con raffiche a 28 Km/h21°C64%1027 hPa
08:55Passo ResiaSerenoNNE a 9 Km/h12°C88%1030 hPa
08:55DobbiacoSerenoAssente16°C72%1030 hPa
08:55PaganellaSerenoN a 4 Km/h13°C72%1033 hPa
08:55Passo RolleSerenoWNW a 6 Km/h11°C77%1032 hPa
08:55TarvisioSerenoW a 2 Km/h17°C73%1026 hPa
09:20CuneoNNE a 6 Km/h21°C73%1028 hPa
09:20TorinoSerenoE a 6 Km/h22°C61%1027 hPa
08:55Prato NevosoSerenoE a 6 Km/h19°C78%1028 hPa
08:55UdineSerenoE a 6 Km/h19°C68%1026 hPa
09:20VeneziaSerenoENE a 6 Km/h21°C64%1026 hPa
08:55TriesteSerenoWNW a 2 Km/h19°C78%1026 hPa
08:55TrevisoSerenoAssente20°C73%1026 hPa
09:20VeronaSerenoSE a 6 Km/h21°C50%1027 hPa

Austria

Ora Localita Cielo Situazione Vento Temperatura Umidita Pressione
09:20InnsbruckPoco NuvolosoWNW a 7 Km/h18°C78%1027 hPa
09:20SalisburgoSerenoSSE a 20 Km/h22°C61%1024 hPa
09:20KlagenfurtSerenovariabile a 4 Km/h20°C56%1026 hPa
09:20GrazSerenovariabile a 4 Km/h17°C68%1024 hPa

Slovenia

Ora Localita Cielo Situazione Vento Temperatura Umidita Pressione
09:30LubianaSerenoESE a 6 Km/h18°C56%1026 hPa
09:30MariborSerenovariabile a 4 Km/h21°C53%1024 hPa

Svizzera

Ora Localita Cielo Situazione Vento Temperatura Umidita Pressione
09:20St. GallenSerenoW a 11 Km/h18°C83%1023 hPa
09:20GenčveSerenoSW a 15 Km/h22°C57%1024 hPa
09:20SionPoco NuvolosoE a 11 Km/h20°C60%1026 hPa
09:20La Chaux-de-FondsPoco NuvolosoSSW a 15 Km/h22°C41%1025 hPa
09:20LuganoSerenovariabile a 6 Km/h21°C69%1027 hPa
09:20St. MoritzSerenovariabile a 4 Km/h12°C88%1032 hPa
09:20ZürichSerenovariabile a 4 Km/h22°C53%1024 hPa
09:20BernaSerenovariabile a 6 Km/h22°C61%1024 hPa
09:20GrenchenSerenoSW a 7 Km/h20°C69%1024 hPa

Germania

Ora Localita Cielo Situazione Vento Temperatura Umidita Pressione
09:20MünchenSerenoSSW a 13 Km/h22°C65%1024 hPa
09:20Baden BadenSerenovariabile a 4 Km/h23°C69%1020 hPa
09:20StuttgartSerenovariabile a 4 Km/h24°C57%1022 hPa
09:20FriedrichshafenSerenovariabile a 4 Km/h22°C61%1023 hPa
09:20Lahr (Cochem-Zell)SerenoS a 6 Km/h24°C61%1020 hPa
09:20AltenstadtNuvolosoSSW a 7 Km/h21°C64%1025 hPa
09:20LechfeldNuvolosoS a 11 Km/h22°C57%1023 hPa
09:20AugsburgSerenoSSW a 9 Km/h22°C61%1023 hPa
09:20LaupheimNuvolosoSSW a 7 Km/h20°C69%1023 hPa

Francia

Ora Localita Cielo Situazione Vento Temperatura Umidita Pressione
09:30StrasbourgSerenoS a 7 Km/h26°C54%1020 hPa
09:30NiceSerenovariabile a 4 Km/h25°C44%1027 hPa